Gays, Illinois
Current Conditions -  °F | °C
As of 6:53 PM on Wednesday 17 Dec 2014 (Local Time) from KMTO Reporting Station
Overcast Overcast  
Wind Chill: 16°   Ceiling: 1200
Heat Index: 24°   Visibility: 10mi
Dew Point: 18°   Wind: 7mph
Humidity: 77%   Direction: 340°NNW
Pressure: 30.3"   Gusts: NA
Location:  39.46°N, 88.49°W
Report Text: KMTO 180053Z AUTO 34006KT 10SM OVC012 M04/M08 A3030 RMK AO2 SLP271 T10441078
Loading
Personal Weather Stations






























Interactive Weather Map New forecast layout! Learn more

10-Day Weather Forecast

Advertisements
Track Severe Weather on mobile